Time;durP1;ratioP1;P1;durP2;ratioP2;P2;SDS_P1;SDS_P2;PMS_P1;PMS_P2;Temp;Humidity;BMP_temperature;BMP_pressure;BME280_temperature;BME280_humidity;BME280_pressure;Samples;Min_cycle;Max_cycle;Signal;HPM_P1;HPM_P2
2022/08/15 00:00:41;;;;;;;15.60;10.65;;;20.50;99.90;;;;;;4990195;28;20113;-88
2022/08/15 00:03:21;;;;;;;19.55;11.43;;;20.50;99.90;;;;;;4992543;28;20061;-87
2022/08/15 00:05:47;;;;;;;17.98;10.77;;;20.50;99.90;;;;;;5018447;28;20014;-87
2022/08/15 00:08:13;;;;;;;20.27;11.07;;;20.50;99.90;;;;;;5001746;28;20245;-88
2022/08/15 00:10:41;;;;;;;15.15;9.90;;;20.50;99.90;;;;;;5001246;28;20022;-88
2022/08/15 00:13:14;;;;;;;18.20;10.75;;;20.40;99.90;;;;;;4999693;28;20022;-87
2022/08/15 00:15:40;;;;;;;14.40;10.70;;;20.40;99.90;;;;;;4984362;28;20030;-86
2022/08/15 00:18:06;;;;;;;17.08;10.77;;;20.40;99.90;;;;;;4999082;28;20122;-87
2022/08/15 00:20:37;;;;;;;13.77;10.27;;;20.30;99.90;;;;;;4999410;28;20046;-87
2022/08/15 00:23:07;;;;;;;16.55;11.35;;;20.30;99.90;;;;;;5017376;28;20054;-87
2022/08/15 00:25:39;;;;;;;15.65;10.57;;;20.20;99.90;;;;;;4999743;28;20041;-88
2022/08/15 00:28:07;;;;;;;15.80;10.60;;;20.20;99.90;;;;;;5013464;28;20040;-88
2022/08/15 00:30:38;;;;;;;14.75;10.70;;;20.20;99.90;;;;;;5009715;28;20019;-88
2022/08/15 00:33:05;;;;;;;15.32;10.50;;;20.20;99.90;;;;;;4990457;28;20050;-88
2022/08/15 00:35:37;;;;;;;13.98;10.15;;;20.10;99.90;;;;;;4992192;28;20033;-87
2022/08/15 00:38:08;;;;;;;15.95;10.15;;;20.10;99.90;;;;;;4991541;28;20061;-89
2022/08/15 00:41:39;;;;;;;15.35;10.48;;;20.10;99.90;;;;;;4990489;28;20081;-88
2022/08/15 00:43:23;;;;;;;14.65;10.32;;;20.20;99.90;;;;;;4987171;28;20133;-87
2022/08/15 00:45:51;;;;;;;14.80;10.77;;;20.10;99.90;;;;;;5004998;28;20026;-89
2022/08/15 00:51:05;;;;;;;16.88;11.10;;;20.00;99.90;;;;;;5004972;28;20130;-87
2022/08/15 00:53:31;;;;;;;13.75;10.82;;;20.00;99.90;;;;;;4994373;28;20027;-88
2022/08/15 00:55:58;;;;;;;16.17;11.43;;;20.00;99.90;;;;;;4987084;28;20078;-88
2022/08/15 00:58:24;;;;;;;16.80;10.43;;;19.90;99.90;;;;;;5003651;28;20471;-88
2022/08/15 01:00:51;;;;;;;14.77;10.95;;;19.90;99.90;;;;;;4969475;28;20035;-87
2022/08/15 01:03:28;;;;;;;13.70;10.25;;;19.90;99.90;;;;;;4969677;28;20026;-89
2022/08/15 01:05:59;;;;;;;16.50;10.02;;;19.90;99.90;;;;;;5007452;28;20030;-88
2022/08/15 01:08:30;;;;;;;15.90;10.40;;;19.90;99.90;;;;;;5008584;28;20114;-86
2022/08/15 01:10:58;;;;;;;17.58;10.13;;;19.80;99.90;;;;;;5010041;28;20026;-88
2022/08/15 01:13:24;;;;;;;16.02;11.10;;;19.80;99.90;;;;;;4996925;28;20033;-87
2022/08/15 01:15:51;;;;;;;14.35;10.23;;;19.80;99.90;;;;;;4983771;28;20050;-89
2022/08/15 01:18:17;;;;;;;17.70;10.63;;;19.90;99.90;;;;;;5011970;28;20072;-87
2022/08/15 01:20:44;;;;;;;15.68;10.45;;;19.90;99.90;;;;;;4976524;28;20035;-89
2022/08/15 01:23:35;;;;;;;16.67;11.13;;;19.80;99.90;;;;;;4975930;28;20026;-86
2022/08/15 01:26:07;;;;;;;16.17;10.68;;;19.80;99.90;;;;;;4975194;28;20030;-88
2022/08/15 01:28:41;;;;;;;16.77;10.68;;;19.70;99.90;;;;;;4998066;28;20109;-88
2022/08/15 01:31:16;;;;;;;17.02;11.52;;;19.70;99.90;;;;;;4983555;28;20022;-87
2022/08/15 01:33:46;;;;;;;17.52;11.00;;;19.70;99.90;;;;;;4998958;28;20039;-87
2022/08/15 01:36:13;;;;;;;13.48;10.23;;;19.70;99.90;;;;;;4978641;28;20031;-88
2022/08/15 01:38:47;;;;;;;20.00;11.02;;;19.70;99.90;;;;;;4997945;28;20030;-87
2022/08/15 01:41:38;;;;;;;15.48;10.82;;;19.60;99.90;;;;;;5009344;28;20105;-87
2022/08/15 01:44:33;;;;;;;15.27;11.40;;;19.60;99.90;;;;;;4978931;28;20482;-86
2022/08/15 01:47:21;;;;;;;15.98;10.98;;;19.60;99.90;;;;;;4999900;28;20037;-89
2022/08/15 01:50:13;;;;;;;13.93;9.75;;;19.70;99.90;;;;;;5003481;28;20027;-87
2022/08/15 01:52:52;;;;;;;13.30;9.70;;;19.70;99.90;;;;;;4980056;28;20062;-89
2022/08/15 01:55:25;;;;;;;15.02;10.73;;;19.80;99.90;;;;;;5003701;28;20018;-89
2022/08/15 01:57:51;;;;;;;14.23;10.13;;;19.80;99.90;;;;;;4997132;28;20453;-88
2022/08/15 02:00:18;;;;;;;14.77;10.60;;;19.90;99.90;;;;;;4991222;28;20478;-88
2022/08/15 02:02:45;;;;;;;16.23;10.52;;;19.90;99.90;;;;;;4994483;28;20037;-89
2022/08/15 02:05:10;;;;;;;14.93;10.32;;;19.90;99.90;;;;;;4985828;28;20015;-87
2022/08/15 02:07:36;;;;;;;14.80;10.73;;;19.90;99.90;;;;;;4991681;28;20054;-87
2022/08/15 02:10:04;;;;;;;15.25;10.52;;;19.90;99.90;;;;;;4975391;28;20031;-88
2022/08/15 02:12:37;;;;;;;16.63;11.77;;;19.90;99.90;;;;;;4976595;28;20106;-87
2022/08/15 02:15:16;;;;;;;19.38;10.95;;;19.90;99.90;;;;;;4992101;28;20041;-88
2022/08/15 02:17:44;;;;;;;19.23;11.05;;;19.80;99.90;;;;;;4978149;28;20030;-86
2022/08/15 02:20:13;;;;;;;18.13;10.48;;;19.80;99.90;;;;;;4993865;28;20018;-86
2022/08/15 02:22:39;;;;;;;17.55;10.85;;;19.70;99.90;;;;;;4993032;28;20470;-87
2022/08/15 02:25:07;;;;;;;20.15;10.55;;;19.80;99.90;;;;;;4975556;28;20032;-87
2022/08/15 02:27:36;;;;;;;17.80;10.70;;;19.70;99.90;;;;;;5008311;28;20031;-86
2022/08/15 02:30:16;;;;;;;17.15;10.77;;;19.70;99.90;;;;;;4992890;28;20026;-88
2022/08/15 02:32:43;;;;;;;18.35;10.57;;;19.60;99.90;;;;;;4976868;28;20043;-89
2022/08/15 02:35:12;;;;;;;19.02;11.43;;;19.60;99.90;;;;;;4975367;28;20014;-89
2022/08/15 02:37:40;;;;;;;19.58;11.02;;;19.60;99.90;;;;;;4975438;28;20518;-88
2022/08/15 02:40:11;;;;;;;19.92;11.50;;;19.60;99.90;;;;;;4992080;28;20050;-88
2022/08/15 02:42:38;;;;;;;14.32;10.48;;;19.50;99.90;;;;;;4995299;28;20010;-87
2022/08/15 02:45:10;;;;;;;19.63;12.13;;;19.50;99.90;;;;;;4985194;28;20021;-88
2022/08/15 02:47:38;;;;;;;18.25;11.00;;;19.50;99.90;;;;;;4987097;28;20073;-88
2022/08/15 02:50:06;;;;;;;16.63;11.70;;;19.50;99.90;;;;;;4986236;28;20025;-87
2022/08/15 02:52:42;;;;;;;20.60;11.50;;;19.40;99.90;;;;;;5019161;28;20037;-86
2022/08/15 02:55:11;;;;;;;16.50;11.48;;;19.40;99.90;;;;;;4975325;28;20027;-87
2022/08/15 02:57:38;;;;;;;15.55;11.07;;;19.40;99.90;;;;;;4993952;28;20027;-87
2022/08/15 03:00:09;;;;;;;17.02;11.68;;;19.40;99.90;;;;;;4991372;28;20015;-88
2022/08/15 03:02:54;;;;;;;18.33;11.13;;;19.40;99.90;;;;;;4991434;28;20034;-89
2022/08/15 03:05:24;;;;;;;19.70;11.68;;;19.40;99.90;;;;;;4989819;28;20042;-88
2022/08/15 03:07:50;;;;;;;19.60;11.63;;;19.40;99.90;;;;;;4998863;28;20014;-87
2022/08/15 03:10:16;;;;;;;25.98;11.73;;;19.30;99.90;;;;;;4985499;28;20022;-88
2022/08/15 03:12:53;;;;;;;19.67;11.38;;;19.30;99.90;;;;;;4985730;28;20038;-88
2022/08/15 03:15:24;;;;;;;20.73;11.27;;;19.30;99.90;;;;;;4985892;28;20040;-87
2022/08/15 03:17:52;;;;;;;15.85;11.07;;;19.40;99.90;;;;;;5001746;28;20014;-88
2022/08/15 03:20:19;;;;;;;18.63;11.13;;;19.30;99.90;;;;;;4983193;28;20006;-88
2022/08/15 03:22:48;;;;;;;21.50;11.98;;;19.40;99.90;;;;;;4977774;28;20065;-86
2022/08/15 03:25:24;;;;;;;20.75;11.57;;;19.30;99.90;;;;;;4991820;28;20026;-88
2022/08/15 03:27:50;;;;;;;17.05;11.05;;;19.30;99.90;;;;;;4989244;28;20030;-86
2022/08/15 03:30:16;;;;;;;18.10;11.45;;;19.30;99.90;;;;;;4972596;28;20029;-86
2022/08/15 03:32:47;;;;;;;16.83;10.80;;;19.30;99.90;;;;;;4975011;28;20038;-86
2022/08/15 03:35:13;;;;;;;18.15;11.45;;;19.30;99.90;;;;;;5001662;28;20026;-88
2022/08/15 03:37:39;;;;;;;20.38;11.00;;;19.30;99.90;;;;;;5002177;28;20073;-86
2022/08/15 03:40:06;;;;;;;21.48;11.05;;;19.20;99.90;;;;;;5002182;28;20022;-87
2022/08/15 03:42:36;;;;;;;19.23;11.23;;;19.20;99.90;;;;;;4999825;28;20030;-87
2022/08/15 03:45:09;;;;;;;18.15;11.60;;;19.20;99.90;;;;;;4989780;28;20065;-86
2022/08/15 03:47:36;;;;;;;19.45;10.73;;;19.10;99.90;;;;;;4989879;28;20042;-87
2022/08/15 03:50:04;;;;;;;19.20;10.93;;;19.10;99.90;;;;;;4989020;28;20022;-87
2022/08/15 03:52:31;;;;;;;21.52;11.40;;;19.10;99.90;;;;;;4988346;28;20090;-88
2022/08/15 03:55:06;;;;;;;18.80;11.57;;;19.10;99.90;;;;;;4977954;28;20030;-88
2022/08/15 03:57:32;;;;;;;;;;;19.10;99.90;;;;;;4980366;28;20034;-88
2022/08/15 03:59:58;;;;;;;20.92;11.70;;;19.10;99.90;;;;;;4999050;28;19909;-87
2022/08/15 04:02:25;;;;;;;18.90;11.20;;;19.00;99.90;;;;;;5001738;28;20066;-88
2022/08/15 04:04:51;;;;;;;18.00;11.48;;;19.00;99.90;;;;;;5001900;28;20030;-88
2022/08/15 04:07:17;;;;;;;19.25;11.30;;;19.00;99.90;;;;;;5001609;28;20105;-88
2022/08/15 04:09:43;;;;;;;23.52;11.05;;;19.00;99.90;;;;;;5001519;28;20019;-90
2022/08/15 04:12:10;;;;;;;16.48;11.65;;;19.00;99.90;;;;;;5000918;28;20104;-87
2022/08/15 04:14:38;;;;;;;24.98;10.70;;;19.00;99.90;;;;;;4999577;28;20102;-89
2022/08/15 04:17:13;;;;;;;16.67;10.45;;;19.00;99.90;;;;;;4998316;28;20257;-88
2022/08/15 04:19:40;;;;;;;19.58;11.98;;;19.00;99.90;;;;;;4992787;28;20085;-87
2022/08/15 04:22:06;;;;;;;21.13;12.57;;;19.10;99.90;;;;;;4994126;28;20018;-88
2022/08/15 04:24:32;;;;;;;22.90;11.82;;;19.10;99.90;;;;;;4998963;28;20030;-87
2022/08/15 04:26:58;;;;;;;23.40;11.48;;;19.20;99.90;;;;;;5000574;28;20042;-88
2022/08/15 04:29:25;;;;;;;17.33;11.40;;;19.20;99.90;;;;;;4985316;28;20018;-87
2022/08/15 04:31:50;;;;;;;19.70;11.38;;;19.30;99.90;;;;;;4979973;28;20446;-88
2022/08/15 04:34:16;;;;;;;18.48;11.98;;;19.30;99.90;;;;;;4987959;28;20039;-87
2022/08/15 04:36:49;;;;;;;20.60;13.70;;;19.40;99.90;;;;;;4980992;28;20033;-87
2022/08/15 04:39:15;;;;;;;20.10;12.52;;;19.50;99.90;;;;;;4985963;28;20034;-88
2022/08/15 04:41:51;;;;;;;20.52;11.70;;;19.50;99.90;;;;;;5005467;28;20030;-89
2022/08/15 04:44:20;;;;;;;17.05;11.15;;;19.60;99.90;;;;;;5005476;28;20014;-91
2022/08/15 04:46:51;;;;;;;20.17;10.93;;;19.60;99.90;;;;;;4989632;28;20018;-88
2022/08/15 04:49:17;;;;;;;18.92;12.00;;;19.70;99.90;;;;;;5022220;28;20049;-87
2022/08/15 04:51:44;;;;;;;26.40;11.85;;;19.70;99.90;;;;;;5022120;28;20010;-89
2022/08/15 04:54:10;;;;;;;20.67;11.70;;;19.80;99.90;;;;;;4988854;28;20101;-89
2022/08/15 04:56:39;;;;;;;17.50;10.60;;;19.80;99.90;;;;;;5005138;28;20007;-88
2022/08/15 04:59:05;;;;;;;18.92;11.63;;;19.90;99.90;;;;;;5021607;28;20045;-88
2022/08/15 05:01:32;;;;;;;16.88;11.80;;;19.90;99.90;;;;;;5005025;28;20014;-88
2022/08/15 05:04:00;;;;;;;22.58;11.82;;;20.00;99.90;;;;;;4989297;28;20045;-88
2022/08/15 05:06:26;;;;;;;16.70;11.48;;;20.10;99.90;;;;;;4989242;28;20049;-90
2022/08/15 05:08:54;;;;;;;17.83;11.05;;;20.10;99.90;;;;;;5004914;28;20033;-90
2022/08/15 05:13:55;;;;;;;16.08;11.73;;;20.30;99.90;;;;;;4984301;28;20038;-79
2022/08/15 05:16:34;;;;;;;18.40;11.30;;;20.40;99.90;;;;;;5005547;28;20030;-79
2022/08/15 05:19:02;;;;;;;16.35;11.18;;;20.40;99.90;;;;;;4982220;28;20027;-82
2022/08/15 05:21:29;;;;;;;15.25;11.43;;;20.50;99.90;;;;;;4966718;28;20033;-82
2022/08/15 05:23:55;;;;;;;21.30;10.77;;;20.70;99.90;;;;;;4983825;28;20034;-80
2022/08/15 05:26:27;;;;;;;19.75;10.23;;;20.90;99.90;;;;;;4982645;28;20062;-81
2022/08/15 05:28:53;;;;;;;15.60;11.25;;;21.10;99.90;;;;;;5001201;28;20046;-80
2022/08/15 05:31:19;;;;;;;16.60;10.32;;;21.00;99.90;;;;;;4985293;28;20023;-80
2022/08/15 05:33:49;;;;;;;18.75;10.82;;;21.10;99.90;;;;;;4988095;28;20030;-80
2022/08/15 05:36:18;;;;;;;18.48;10.98;;;21.00;99.90;;;;;;5004805;28;20030;-80
2022/08/15 05:38:52;;;;;;;15.23;11.20;;;21.10;99.90;;;;;;4985910;28;20042;-81
2022/08/15 05:41:35;;;;;;;18.88;11.65;;;21.10;99.90;;;;;;4987036;28;20113;-81
2022/08/15 05:44:07;;;;;;;17.50;10.73;;;21.20;99.90;;;;;;4989757;28;20061;-81
2022/08/15 05:46:39;;;;;;;14.50;10.68;;;21.30;99.90;;;;;;4988680;28;20054;-81
2022/08/15 05:49:21;;;;;;;17.35;10.88;;;21.50;99.90;;;;;;4987367;28;20026;-81
2022/08/15 05:51:51;;;;;;;18.42;11.40;;;21.60;99.90;;;;;;4970146;28;20030;-79
2022/08/15 05:54:30;;;;;;;16.50;11.52;;;21.80;99.90;;;;;;5002677;28;20106;-81
2022/08/15 05:57:21;;;;;;;17.58;10.95;;;21.90;99.90;;;;;;4988967;28;20050;-80
2022/08/15 05:59:55;;;;;;;18.42;11.10;;;21.90;99.90;;;;;;4983588;28;20026;-80
2022/08/15 06:02:30;;;;;;;17.98;10.60;;;21.90;99.90;;;;;;4982543;28;20034;-81
2022/08/15 06:05:05;;;;;;;15.13;10.45;;;21.90;99.90;;;;;;4983138;28;20034;-80
2022/08/15 06:07:32;;;;;;;19.75;10.95;;;21.80;99.90;;;;;;4982347;28;20093;-79
2022/08/15 06:10:11;;;;;;;18.02;10.63;;;21.80;99.90;;;;;;4982188;28;20034;-83
2022/08/15 06:12:47;;;;;;;16.25;10.45;;;21.90;99.90;;;;;;4986614;28;20436;-80
2022/08/15 06:15:33;;;;;;;14.02;10.48;;;22.10;99.90;;;;;;4968780;28;20031;-81
2022/08/15 06:18:07;;;;;;;15.73;10.68;;;22.20;99.90;;;;;;4982670;28;20034;-79
2022/08/15 06:21:04;;;;;;;17.13;10.63;;;22.20;99.90;;;;;;4988850;28;20062;-81
2022/08/15 06:23:51;;;;;;;14.85;11.10;;;22.30;99.90;;;;;;4984054;28;20096;-80
2022/08/15 06:26:36;;;;;;;17.55;11.38;;;22.20;99.90;;;;;;5000193;28;20113;-80
2022/08/15 06:29:11;;;;;;;14.63;11.05;;;22.10;99.90;;;;;;4981370;28;20065;-80
2022/08/15 06:31:40;;;;;;;18.42;10.75;;;22.20;99.90;;;;;;4982304;28;20528;-80
2022/08/15 06:34:33;;;;;;;17.15;10.30;;;22.20;99.90;;;;;;4981935;28;20038;-81
2022/08/15 06:37:07;;;;;;;15.35;10.82;;;22.30;99.90;;;;;;4966989;28;20034;-82
2022/08/15 06:39:40;;;;;;;14.40;11.05;;;22.40;99.90;;;;;;4999303;28;20470;-82
2022/08/15 06:42:34;;;;;;;15.63;10.48;;;22.50;99.90;;;;;;4983756;28;20118;-81
2022/08/15 06:45:07;;;;;;;17.98;11.18;;;22.50;99.90;;;;;;4983829;28;20038;-81
2022/08/15 06:47:34;;;;;;;15.90;11.07;;;22.50;99.90;;;;;;5008758;28;20403;-81
2022/08/15 06:50:11;;;;;;;16.20;10.60;;;22.50;99.90;;;;;;5005844;28;20098;-80
2022/08/15 06:52:39;;;;;;;15.77;10.68;;;22.40;99.90;;;;;;4988018;28;20049;-81
2022/08/15 06:55:06;;;;;;;17.40;11.52;;;22.40;99.90;;;;;;4984341;28;20023;-80
2022/08/15 06:57:53;;;;;;;14.77;10.48;;;22.40;99.90;;;;;;4969461;28;20474;-80
2022/08/15 07:00:33;;;;;;;17.42;10.60;;;22.40;99.90;;;;;;4985540;28;20049;-83
2022/08/15 07:03:15;;;;;;;18.00;9.88;;;22.30;99.90;;;;;;4985478;28;20030;-83
2022/08/15 07:05:54;;;;;;;17.08;11.05;;;22.30;99.90;;;;;;4989612;28;20447;-80
2022/08/15 07:08:51;;;;;;;18.42;10.65;;;22.40;99.90;;;;;;4990815;28;20089;-80
2022/08/15 07:11:33;;;;;;;18.05;11.80;;;22.60;99.90;;;;;;4990487;28;20471;-80
2022/08/15 07:14:07;;;;;;;13.68;10.50;;;22.80;99.90;;;;;;4973799;28;20467;-81
2022/08/15 07:16:44;;;;;;;23.42;11.00;;;22.90;99.90;;;;;;4991576;28;20028;-80
2022/08/15 07:19:10;;;;;;;;;;;23.10;99.90;;;;;;4975066;28;20030;-80
2022/08/15 07:21:47;;;;;;;17.90;11.70;;;23.30;99.90;;;;;;4976961;28;19905;-81
2022/08/15 07:24:16;;;;;;;15.63;10.32;;;23.40;99.90;;;;;;4990157;28;20035;-81
2022/08/15 07:26:50;;;;;;;15.70;10.70;;;23.50;99.90;;;;;;5008507;28;20057;-80
2022/08/15 07:29:28;;;;;;;19.85;11.50;;;23.70;99.90;;;;;;4974119;28;20034;-80
2022/08/15 07:32:20;;;;;;;14.80;10.85;;;23.90;99.90;;;;;;4990570;28;20034;-80
2022/08/15 07:34:55;;;;;;;13.57;11.00;;;24.10;99.90;;;;;;4991199;28;20057;-81
2022/08/15 07:37:23;;;;;;;14.85;11.55;;;24.10;99.90;;;;;;4989418;28;20092;-84
2022/08/15 07:40:04;;;;;;;19.45;10.93;;;24.20;99.90;;;;;;4989682;28;20057;-81
2022/08/15 07:42:38;;;;;;;18.50;10.43;;;24.20;99.90;;;;;;4991281;28;20402;-81
2022/08/15 07:45:18;;;;;;;16.38;11.05;;;24.40;99.90;;;;;;4994174;28;20077;-81
2022/08/15 07:47:57;;;;;;;14.25;10.05;;;24.40;99.90;;;;;;5013726;28;20041;-80
2022/08/15 07:50:38;;;;;;;16.15;10.35;;;24.50;99.90;;;;;;4998842;28;20045;-80
2022/08/15 07:53:16;;;;;;;17.45;10.95;;;24.40;99.90;;;;;;4998826;28;20121;-80
2022/08/15 07:56:04;;;;;;;16.90;10.18;;;24.60;99.90;;;;;;4981552;28;20290;-81
2022/08/15 07:58:34;;;;;;;13.82;10.13;;;24.70;99.90;;;;;;4987077;28;20110;-82
2022/08/15 08:01:14;;;;;;;14.27;10.05;;;24.90;99.90;;;;;;4973940;28;20022;-82
2022/08/15 08:03:50;;;;;;;13.40;10.38;;;25.00;99.90;;;;;;4985517;28;20141;-83
2022/08/15 08:06:30;;;;;;;17.45;10.60;;;25.00;99.90;;;;;;4982936;28;20046;-81
2022/08/15 08:09:08;;;;;;;18.15;10.30;;;25.00;99.90;;;;;;4988769;28;20062;-80
2022/08/15 08:11:34;;;;;;;12.50;9.63;;;25.00;99.90;;;;;;4981652;28;20034;-83
2022/08/15 08:14:15;;;;;;;15.38;10.40;;;25.00;99.90;;;;;;4998902;28;20022;-84
2022/08/15 08:16:52;;;;;;;15.88;10.57;;;25.00;99.90;;;;;;4981789;28;20044;-83
2022/08/15 08:19:24;;;;;;;14.02;10.48;;;25.00;99.90;;;;;;4986242;28;20027;-84
2022/08/15 08:22:17;;;;;;;15.20;10.60;;;25.00;99.90;;;;;;4988990;28;20027;-81
2022/08/15 08:24:55;;;;;;;16.77;10.73;;;25.00;99.90;;;;;;4988345;28;20657;-82
2022/08/15 08:27:55;;;;;;;12.30;9.70;;;25.00;99.90;;;;;;4987410;28;20037;-81
2022/08/15 08:30:32;;;;;;;14.27;10.85;;;25.30;99.90;;;;;;4990423;28;20559;-84
2022/08/15 08:33:19;;;;;;;20.80;10.73;;;25.30;99.90;;;;;;4992476;28;20022;-82
2022/08/15 08:35:54;;;;;;;14.73;10.05;;;25.40;99.90;;;;;;5005047;28;20093;-80
2022/08/15 08:38:42;;;;;;;;;;;25.50;99.90;;;;;;4984717;28;20482;-80
2022/08/15 08:41:37;;;;;;;13.35;10.00;;;25.70;99.90;;;;;;5001459;28;19910;-83
2022/08/15 08:44:35;;;;;;;14.35;10.20;;;25.80;99.90;;;;;;5000587;28;20106;-83
2022/08/15 08:47:04;;;;;;;17.48;9.88;;;26.10;99.90;;;;;;4999240;28;20126;-82
2022/08/15 08:50:00;;;;;;;13.00;9.93;;;26.40;99.90;;;;;;5004848;28;20105;-83
2022/08/15 08:52:48;;;;;;;15.85;10.20;;;26.60;99.90;;;;;;5000760;28;20394;-83
2022/08/15 08:55:23;;;;;;;12.80;9.35;;;26.90;99.90;;;;;;5001054;28;20035;-84
2022/08/15 08:58:04;;;;;;;20.52;14.73;;;27.00;99.90;;;;;;4988476;28;20027;-81
2022/08/15 09:00:51;;;;;;;14.55;10.73;;;27.00;99.90;;;;;;5003401;28;20022;-83
2022/08/15 09:03:34;;;;;;;14.93;10.95;;;26.80;99.90;;;;;;4998558;28;20061;-82
2022/08/15 09:06:02;;;;;;;16.50;11.45;;;26.90;99.90;;;;;;4999292;28;20101;-84
2022/08/15 09:08:41;;;;;;;14.13;10.20;;;27.00;99.90;;;;;;4998557;28;20038;-84
2022/08/15 09:11:19;;;;;;;14.10;10.18;;;27.20;99.90;;;;;;4998534;28;20057;-82
2022/08/15 09:13:49;;;;;;;16.38;9.38;;;27.30;99.90;;;;;;4999653;28;20076;-81
2022/08/15 09:16:30;;;;;;;10.95;8.90;;;27.40;99.90;;;;;;5004049;28;20086;-83
2022/08/15 09:19:45;;;;;;;13.98;9.23;;;27.40;99.90;;;;;;4997315;28;20026;-81
2022/08/15 09:22:11;;;;;;;18.92;9.75;;;27.50;99.90;;;;;;4961890;28;20127;-83
2022/08/15 09:24:37;;;;;;;13.90;9.57;;;27.50;99.90;;;;;;4997870;28;20022;-83
2022/08/15 09:27:18;;;;;;;11.07;8.05;;;27.80;99.70;;;;;;5000736;28;20042;-82
2022/08/15 09:29:52;;;;;;;10.77;8.55;;;28.00;98.70;;;;;;4983259;28;20085;-83
2022/08/15 09:32:27;;;;;;;9.57;7.38;;;28.10;98.30;;;;;;5001119;28;20026;-82
2022/08/15 09:35:10;;;;;;;9.93;7.50;;;28.40;97.70;;;;;;5001704;28;20686;-81
2022/08/15 09:37:57;;;;;;;14.45;7.80;;;28.90;97.50;;;;;;5001118;28;20031;-83
2022/08/15 09:40:44;;;;;;;7.93;7.13;;;29.10;97.00;;;;;;4983739;28;20073;-84
2022/08/15 09:43:36;;;;;;;7.38;6.35;;;30.60;95.10;;;;;;5000890;28;20537;-82
2022/08/15 09:46:24;;;;;;;10.52;6.80;;;31.80;93.50;;;;;;4965940;28;20116;-81
2022/08/15 09:49:24;;;;;;;11.52;7.40;;;32.70;91.70;;;;;;4986659;28;20034;-83
2022/08/15 09:52:10;;;;;;;9.32;6.53;;;32.50;90.70;;;;;;4983617;28;20052;-83
2022/08/15 09:54:48;;;;;;;9.25;7.40;;;34.20;88.10;;;;;;5004192;28;20035;-82
2022/08/15 09:57:23;;;;;;;9.30;6.97;;;33.00;87.50;;;;;;5004762;28;20033;-83
2022/08/15 10:00:15;;;;;;;7.47;6.50;;;32.70;88.30;;;;;;5008042;28;20053;-81
2022/08/15 10:02:43;;;;;;;7.70;6.22;;;34.50;85.60;;;;;;4958586;28;20046;-83
2022/08/15 10:05:21;;;;;;;7.30;6.18;;;35.80;82.00;;;;;;5005390;28;20033;-82
2022/08/15 10:07:58;;;;;;;7.78;6.25;;;37.40;77.80;;;;;;5006891;28;20023;-83
2022/08/15 10:10:46;;;;;;;9.52;6.40;;;37.50;75.40;;;;;;5002682;28;20041;-82
2022/08/15 10:13:45;;;;;;;6.30;5.68;;;39.20;71.20;;;;;;5001671;28;20038;-83
2022/08/15 10:16:39;;;;;;;6.30;5.70;;;40.10;66.80;;;;;;4989800;28;20034;-82
2022/08/15 10:19:09;;;;;;;5.70;5.03;;;39.80;65.30;;;;;;4996264;28;20042;-82
2022/08/15 10:21:40;;;;;;;10.63;6.45;;;40.60;64.80;;;;;;5010879;28;20046;-84
2022/08/15 10:24:28;;;;;;;5.90;4.95;;;41.60;61.50;;;;;;4992682;28;20101;-83
2022/08/15 10:27:09;;;;;;;7.18;5.72;;;42.40;59.80;;;;;;4991794;28;20050;-82
2022/08/15 10:29:40;;;;;;;6.82;6.05;;;41.50;58.30;;;;;;5012922;28;20030;-82
2022/08/15 10:32:28;;;;;;;7.35;5.60;;;39.60;59.90;;;;;;5000199;28;20026;-82
2022/08/15 10:35:09;;;;;;;6.68;5.57;;;39.50;60.50;;;;;;5018062;28;20030;-82
2022/08/15 10:37:51;;;;;;;7.63;6.88;;;38.10;61.20;;;;;;5017901;28;20022;-80
2022/08/15 10:40:34;;;;;;;9.77;6.97;;;36.70;64.40;;;;;;5018352;28;20035;-79
2022/08/15 10:43:40;;;;;;;8.38;6.57;;;36.90;64.70;;;;;;5018719;28;20037;-81
2022/08/15 10:46:17;;;;;;;7.32;6.28;;;37.50;63.30;;;;;;5001745;28;20018;-80
2022/08/15 10:49:10;;;;;;;7.93;6.30;;;37.20;63.40;;;;;;5018209;28;20014;-80
2022/08/15 10:51:43;;;;;;;6.82;5.85;;;38.20;62.50;;;;;;5010476;28;20137;-82
2022/08/15 10:54:24;;;;;;;6.38;5.78;;;38.80;61.90;;;;;;4984691;28;20037;-81
2022/08/15 10:56:54;;;;;;;5.90;5.40;;;39.60;59.80;;;;;;4984047;28;20042;-81
2022/08/15 10:59:43;;;;;;;5.88;5.15;;;39.40;60.50;;;;;;4983447;28;20026;-81
2022/08/15 11:02:24;;;;;;;6.88;6.18;;;41.10;58.90;;;;;;4998576;28;20027;-80
2022/08/15 11:04:50;;;;;;;6.05;5.45;;;39.30;59.30;;;;;;4996865;28;20030;-80
2022/08/15 11:07:17;;;;;;;5.80;5.20;;;38.20;60.70;;;;;;4997476;28;20045;-81
2022/08/15 11:09:52;;;;;;;5.38;4.88;;;40.20;58.90;;;;;;4997289;28;20046;-82
2022/08/15 11:12:20;;;;;;;6.72;5.03;;;42.10;56.60;;;;;;5027481;23;20046;-86
2022/08/15 11:14:53;;;;;;;5.50;4.97;;;43.20;55.20;;;;;;5031608;28;20026;-85
2022/08/15 11:17:24;;;;;;;6.18;5.22;;;44.60;53.90;;;;;;5025436;28;20389;-87
2022/08/15 11:19:52;;;;;;;6.72;4.70;;;45.40;52.40;;;;;;5025637;28;20018;-85
2022/08/15 11:22:33;;;;;;;7.28;5.28;;;45.40;51.60;;;;;;5032885;28;20045;-87
2022/08/15 11:25:05;;;;;;;5.47;4.97;;;44.60;51.50;;;;;;5010650;28;20048;-87
2022/08/15 11:27:31;;;;;;;6.20;5.60;;;42.30;52.80;;;;;;5028210;28;20030;-86
2022/08/15 11:29:58;;;;;;;6.07;5.47;;;41.00;53.80;;;;;;5028181;28;20187;-87
2022/08/15 11:32:31;;;;;;;7.25;5.65;;;39.70;55.50;;;;;;5018386;28;20026;-83
2022/08/15 11:34:59;;;;;;;5.60;4.95;;;40.40;55.50;;;;;;5034614;28;20089;-84
2022/08/15 11:37:53;;;;;;;6.45;5.00;;;42.60;53.60;;;;;;5030973;28;20037;-86
2022/08/15 11:40:38;;;;;;;6.63;5.00;;;44.20;52.00;;;;;;5010677;28;20091;-85
2022/08/15 11:43:06;;;;;;;5.05;4.65;;;45.30;50.70;;;;;;5026817;28;20029;-86
2022/08/15 11:45:40;;;;;;;5.97;4.90;;;46.10;50.00;;;;;;5027223;28;20021;-85
2022/08/15 11:48:18;;;;;;;5.38;4.88;;;46.20;48.60;;;;;;5028830;28;20065;-86
2022/08/15 11:51:17;;;;;;;5.35;4.43;;;44.60;48.20;;;;;;5019976;28;20110;-84
2022/08/15 11:54:03;;;;;;;4.75;4.35;;;41.50;50.10;;;;;;5027306;28;20034;-84
2022/08/15 11:56:47;;;;;;;5.78;4.43;;;43.40;49.40;;;;;;5020174;28;20022;-85
2022/08/15 11:59:26;;;;;;;4.18;3.80;;;44.70;48.10;;;;;;5036526;28;20021;-84
2022/08/15 12:02:27;;;;;;;4.85;4.30;;;46.00;47.00;;;;;;5036047;28;20026;-85
2022/08/15 12:04:53;;;;;;;9.77;4.50;;;45.90;46.90;;;;;;5018450;28;20040;-85
2022/08/15 12:07:27;;;;;;;5.28;4.47;;;47.10;46.30;;;;;;5029327;28;20030;-86
2022/08/15 12:10:05;;;;;;;5.55;4.57;;;46.80;45.90;;;;;;5010029;28;20018;-85
2022/08/15 12:12:40;;;;;;;5.35;4.85;;;47.00;45.70;;;;;;5026853;28;20048;-86
2022/08/15 12:15:32;;;;;;;6.13;4.47;;;47.50;45.10;;;;;;5025490;28;20038;-86
2022/08/15 12:18:10;;;;;;;6.63;4.20;;;47.70;44.90;;;;;;5006950;28;20465;-89
2022/08/15 12:21:02;;;;;;;7.20;4.55;;;47.90;45.10;;;;;;5009883;28;20056;-88
2022/08/15 12:23:46;;;;;;;4.75;4.25;;;48.00;44.70;;;;;;4986903;28;20042;-88
2022/08/15 12:26:15;;;;;;;5.90;4.63;;;47.30;45.10;;;;;;5026315;28;20025;-85
2022/08/15 12:28:42;;;;;;;4.78;4.25;;;47.50;45.10;;;;;;5027109;28;20037;-88
2022/08/15 12:31:28;;;;;;;6.35;3.70;;;47.00;44.20;;;;;;5027536;28;20026;-87
2022/08/15 12:34:06;;;;;;;4.20;3.90;;;46.60;44.50;;;;;;5026669;28;20030;-87
2022/08/15 12:36:32;;;;;;;6.00;4.43;;;46.90;44.70;;;;;;5027343;28;20089;-87
2022/08/15 12:38:58;;;;;;;5.10;4.60;;;46.30;44.80;;;;;;5009432;28;20037;-86
2022/08/15 12:41:25;;;;;;;4.50;4.10;;;45.00;45.90;;;;;;5026567;28;20029;-88
2022/08/15 12:43:51;;;;;;;5.93;4.40;;;46.30;45.30;;;;;;4992980;28;20030;-85
2022/08/15 12:46:18;;;;;;;5.88;4.38;;;47.90;44.30;;;;;;5026806;28;20441;-85
2022/08/15 12:48:47;;;;;;;4.43;4.03;;;47.30;44.40;;;;;;5031698;28;20022;-88
2022/08/15 12:51:14;;;;;;;5.07;4.20;;;47.80;44.20;;;;;;5025569;28;20085;-87
2022/08/15 12:53:40;;;;;;;4.80;4.30;;;48.40;43.30;;;;;;5032479;28;20029;-85
2022/08/15 12:56:08;;;;;;;4.70;4.22;;;45.20;43.70;;;;;;5023283;28;20120;-86
2022/08/15 12:58:36;;;;;;;6.60;4.05;;;43.60;45.70;;;;;;5022871;28;20081;-86
2022/08/15 13:01:10;;;;;;;6.43;3.70;;;44.60;45.30;;;;;;5024897;28;20030;-85
2022/08/15 13:03:41;;;;;;;5.40;4.20;;;45.50;44.70;;;;;;5011302;28;20080;-87
2022/08/15 13:06:14;;;;;;;5.38;4.18;;;44.00;44.90;;;;;;5029877;28;20052;-87
2022/08/15 13:08:42;;;;;;;4.10;3.57;;;41.50;46.50;;;;;;5012568;28;20041;-86
2022/08/15 13:11:09;;;;;;;5.00;4.00;;;42.90;46.00;;;;;;5027111;28;20022;-86
2022/08/15 13:13:35;;;;;;;4.00;3.60;;;44.40;45.00;;;;;;5026410;28;20033;-86
2022/08/15 13:16:06;;;;;;;4.38;3.97;;;44.60;44.50;;;;;;5026231;28;20497;-89